sensor_id;sensor_type;location;lat;lon;timestamp;P1;durP1;ratioP1;P2;durP2;ratioP2
53674;SDS011;39574;50.534;8.500;2022-08-04T00:03:10;4.2;;;2.1;;
53674;SDS011;39574;50.534;8.500;2022-08-04T00:08:11;4.0;;;2.0;;
53674;SDS011;39574;50.534;8.500;2022-08-04T00:13:08;4.1;;;2.0;;
53674;SDS011;39574;50.534;8.500;2022-08-04T00:18:08;3.6;;;1.9;;
53674;SDS011;39574;50.534;8.500;2022-08-04T00:23:07;3.5;;;1.9;;
53674;SDS011;39574;50.534;8.500;2022-08-04T00:28:06;3.6;;;2.0;;
53674;SDS011;39574;50.534;8.500;2022-08-04T00:33:06;4.2;;;2.1;;
53674;SDS011;39574;50.534;8.500;2022-08-04T00:38:06;4.6;;;2.2;;
53674;SDS011;39574;50.534;8.500;2022-08-04T00:43:07;4.2;;;2.3;;
53674;SDS011;39574;50.534;8.500;2022-08-04T00:48:08;4.2;;;2.2;;
53674;SDS011;39574;50.534;8.500;2022-08-04T00:53:05;4.2;;;2.2;;
53674;SDS011;39574;50.534;8.500;2022-08-04T00:58:10;3.9;;;2.2;;
53674;SDS011;39574;50.534;8.500;2022-08-04T01:03:07;4.7;;;2.2;;
53674;SDS011;39574;50.534;8.500;2022-08-04T01:08:08;4.8;;;2.2;;
53674;SDS011;39574;50.534;8.500;2022-08-04T01:13:07;4.4;;;2.3;;
53674;SDS011;39574;50.534;8.500;2022-08-04T01:18:03;4.4;;;2.3;;
53674;SDS011;39574;50.534;8.500;2022-08-04T01:23:08;4.1;;;2.4;;
53674;SDS011;39574;50.534;8.500;2022-08-04T01:28:05;3.9;;;2.4;;
53674;SDS011;39574;50.534;8.500;2022-08-04T01:33:02;3.7;;;2.5;;
53674;SDS011;39574;50.534;8.500;2022-08-04T01:38:06;3.4;;;2.5;;
53674;SDS011;39574;50.534;8.500;2022-08-04T01:43:00;3.5;;;2.3;;
53674;SDS011;39574;50.534;8.500;2022-08-04T01:48:00;3.8;;;2.4;;
53674;SDS011;39574;50.534;8.500;2022-08-04T01:52:59;3.8;;;2.4;;
53674;SDS011;39574;50.534;8.500;2022-08-04T01:57:59;4.2;;;2.4;;
53674;SDS011;39574;50.534;8.500;2022-08-04T02:02:58;4.0;;;2.5;;
53674;SDS011;39574;50.534;8.500;2022-08-04T02:08:02;4.3;;;2.6;;
53674;SDS011;39574;50.534;8.500;2022-08-04T02:13:03;4.3;;;2.6;;
53674;SDS011;39574;50.534;8.500;2022-08-04T02:18:01;4.4;;;2.6;;
53674;SDS011;39574;50.534;8.500;2022-08-04T02:22:57;4.4;;;2.6;;
53674;SDS011;39574;50.534;8.500;2022-08-04T02:32:56;4.2;;;2.6;;
53674;SDS011;39574;50.534;8.500;2022-08-04T02:37:59;4.3;;;2.7;;
53674;SDS011;39574;50.534;8.500;2022-08-04T02:42:55;4.6;;;2.7;;
53674;SDS011;39574;50.534;8.500;2022-08-04T02:47:54;4.4;;;2.7;;
53674;SDS011;39574;50.534;8.500;2022-08-04T02:52:53;4.5;;;2.7;;
53674;SDS011;39574;50.534;8.500;2022-08-04T02:57:53;4.1;;;2.6;;
53674;SDS011;39574;50.534;8.500;2022-08-04T03:02:54;4.2;;;2.6;;
53674;SDS011;39574;50.534;8.500;2022-08-04T03:08:14;4.0;;;2.7;;
53674;SDS011;39574;50.534;8.500;2022-08-04T03:12:56;4.4;;;2.6;;
53674;SDS011;39574;50.534;8.500;2022-08-04T03:18:13;4.4;;;2.8;;
53674;SDS011;39574;50.534;8.500;2022-08-04T03:22:56;4.3;;;2.8;;
53674;SDS011;39574;50.534;8.500;2022-08-04T03:27:59;4.4;;;2.9;;
53674;SDS011;39574;50.534;8.500;2022-08-04T03:33:26;4.8;;;2.9;;
53674;SDS011;39574;50.534;8.500;2022-08-04T03:47:54;4.2;;;2.9;;
53674;SDS011;39574;50.534;8.500;2022-08-04T03:52:55;4.4;;;3.0;;
53674;SDS011;39574;50.534;8.500;2022-08-04T04:03:53;4.9;;;2.9;;
53674;SDS011;39574;50.534;8.500;2022-08-04T04:07:52;5.0;;;3.0;;
53674;SDS011;39574;50.534;8.500;2022-08-04T04:12:51;4.5;;;2.9;;
53674;SDS011;39574;50.534;8.500;2022-08-04T04:18:51;4.9;;;3.0;;
53674;SDS011;39574;50.534;8.500;2022-08-04T04:22:52;4.4;;;3.0;;
53674;SDS011;39574;50.534;8.500;2022-08-04T04:27:49;4.8;;;3.1;;
53674;SDS011;39574;50.534;8.500;2022-08-04T04:32:50;4.5;;;3.3;;
53674;SDS011;39574;50.534;8.500;2022-08-04T04:37:49;4.0;;;3.1;;
53674;SDS011;39574;50.534;8.500;2022-08-04T04:42:51;3.9;;;3.0;;
53674;SDS011;39574;50.534;8.500;2022-08-04T04:47:45;3.9;;;3.1;;
53674;SDS011;39574;50.534;8.500;2022-08-04T04:52:44;4.1;;;3.3;;
53674;SDS011;39574;50.534;8.500;2022-08-04T04:57:41;5.5;;;3.4;;
53674;SDS011;39574;50.534;8.500;2022-08-04T05:02:44;5.6;;;3.4;;
53674;SDS011;39574;50.534;8.500;2022-08-04T05:07:47;5.8;;;3.5;;
53674;SDS011;39574;50.534;8.500;2022-08-04T05:12:47;5.4;;;3.3;;
53674;SDS011;39574;50.534;8.500;2022-08-04T05:17:40;5.1;;;3.3;;
53674;SDS011;39574;50.534;8.500;2022-08-04T05:22:41;4.9;;;3.3;;
53674;SDS011;39574;50.534;8.500;2022-08-04T05:27:39;4.9;;;3.4;;
53674;SDS011;39574;50.534;8.500;2022-08-04T05:32:42;4.9;;;3.6;;
53674;SDS011;39574;50.534;8.500;2022-08-04T05:37:39;4.6;;;3.5;;
53674;SDS011;39574;50.534;8.500;2022-08-04T05:42:38;4.3;;;3.4;;
53674;SDS011;39574;50.534;8.500;2022-08-04T05:47:37;4.7;;;3.3;;
53674;SDS011;39574;50.534;8.500;2022-08-04T05:52:37;4.9;;;3.4;;
53674;SDS011;39574;50.534;8.500;2022-08-04T05:57:37;5.2;;;3.7;;
53674;SDS011;39574;50.534;8.500;2022-08-04T06:02:36;5.5;;;4.1;;
53674;SDS011;39574;50.534;8.500;2022-08-04T06:07:36;6.1;;;4.6;;
53674;SDS011;39574;50.534;8.500;2022-08-04T06:12:37;6.7;;;4.6;;
53674;SDS011;39574;50.534;8.500;2022-08-04T06:17:37;7.0;;;4.5;;
53674;SDS011;39574;50.534;8.500;2022-08-04T06:22:36;8.8;;;4.7;;
53674;SDS011;39574;50.534;8.500;2022-08-04T06:27:35;9.3;;;4.6;;
53674;SDS011;39574;50.534;8.500;2022-08-04T06:32:34;8.3;;;4.5;;
53674;SDS011;39574;50.534;8.500;2022-08-04T06:37:35;8.2;;;4.5;;
53674;SDS011;39574;50.534;8.500;2022-08-04T06:42:33;8.2;;;4.4;;
53674;SDS011;39574;50.534;8.500;2022-08-04T06:47:33;7.7;;;4.3;;
53674;SDS011;39574;50.534;8.500;2022-08-04T06:52:33;8.0;;;4.5;;
53674;SDS011;39574;50.534;8.500;2022-08-04T06:57:33;7.7;;;4.4;;
53674;SDS011;39574;50.534;8.500;2022-08-04T07:02:33;7.9;;;4.3;;
53674;SDS011;39574;50.534;8.500;2022-08-04T07:07:32;8.0;;;4.4;;
53674;SDS011;39574;50.534;8.500;2022-08-04T07:12:32;8.4;;;4.5;;
53674;SDS011;39574;50.534;8.500;2022-08-04T07:17:32;8.0;;;4.5;;
53674;SDS011;39574;50.534;8.500;2022-08-04T07:22:32;7.8;;;4.4;;
53674;SDS011;39574;50.534;8.500;2022-08-04T07:27:31;8.4;;;4.4;;
53674;SDS011;39574;50.534;8.500;2022-08-04T07:32:31;7.8;;;4.1;;
53674;SDS011;39574;50.534;8.500;2022-08-04T07:37:31;8.2;;;4.0;;
53674;SDS011;39574;50.534;8.500;2022-08-04T07:42:30;7.4;;;3.9;;
53674;SDS011;39574;50.534;8.500;2022-08-04T07:47:30;6.6;;;3.9;;
53674;SDS011;39574;50.534;8.500;2022-08-04T07:57:33;6.7;;;3.7;;
53674;SDS011;39574;50.534;8.500;2022-08-04T08:02:30;6.2;;;3.5;;
53674;SDS011;39574;50.534;8.500;2022-08-04T08:07:30;5.4;;;3.2;;
53674;SDS011;39574;50.534;8.500;2022-08-04T08:12:30;5.0;;;3.0;;
53674;SDS011;39574;50.534;8.500;2022-08-04T08:17:30;4.9;;;3.0;;
53674;SDS011;39574;50.534;8.500;2022-08-04T08:22:30;5.0;;;3.0;;
53674;SDS011;39574;50.534;8.500;2022-08-04T08:27:29;5.7;;;3.1;;
53674;SDS011;39574;50.534;8.500;2022-08-04T08:32:29;5.2;;;3.0;;
53674;SDS011;39574;50.534;8.500;2022-08-04T08:37:31;4.7;;;3.0;;
53674;SDS011;39574;50.534;8.500;2022-08-04T08:42:36;5.0;;;3.1;;
53674;SDS011;39574;50.534;8.500;2022-08-04T08:47:32;4.5;;;3.0;;
53674;SDS011;39574;50.534;8.500;2022-08-04T08:52:32;4.4;;;2.9;;
53674;SDS011;39574;50.534;8.500;2022-08-04T08:57:36;4.8;;;2.9;;
53674;SDS011;39574;50.534;8.500;2022-08-04T09:02:33;4.5;;;2.8;;
53674;SDS011;39574;50.534;8.500;2022-08-04T09:07:36;4.0;;;2.8;;
53674;SDS011;39574;50.534;8.500;2022-08-04T09:12:32;4.3;;;3.0;;
53674;SDS011;39574;50.534;8.500;2022-08-04T09:17:32;4.5;;;2.8;;
53674;SDS011;39574;50.534;8.500;2022-08-04T09:22:33;3.9;;;2.6;;
53674;SDS011;39574;50.534;8.500;2022-08-04T09:27:33;3.7;;;2.4;;
53674;SDS011;39574;50.534;8.500;2022-08-04T09:32:31;3.6;;;2.3;;
53674;SDS011;39574;50.534;8.500;2022-08-04T09:37:32;3.5;;;2.3;;
53674;SDS011;39574;50.534;8.500;2022-08-04T09:42:33;3.7;;;2.5;;
53674;SDS011;39574;50.534;8.500;2022-08-04T09:47:32;3.7;;;2.5;;
53674;SDS011;39574;50.534;8.500;2022-08-04T09:52:31;3.6;;;2.5;;
53674;SDS011;39574;50.534;8.500;2022-08-04T09:57:37;3.4;;;2.5;;
53674;SDS011;39574;50.534;8.500;2022-08-04T10:02:32;3.3;;;2.4;;
53674;SDS011;39574;50.534;8.500;2022-08-04T10:07:37;4.1;;;2.5;;
53674;SDS011;39574;50.534;8.500;2022-08-04T10:12:34;4.0;;;2.5;;
53674;SDS011;39574;50.534;8.500;2022-08-04T10:17:35;4.4;;;2.5;;
53674;SDS011;39574;50.534;8.500;2022-08-04T10:22:35;4.6;;;2.6;;
53674;SDS011;39574;50.534;8.500;2022-08-04T10:27:33;4.0;;;2.5;;
53674;SDS011;39574;50.534;8.500;2022-08-04T10:32:33;3.7;;;2.3;;
53674;SDS011;39574;50.534;8.500;2022-08-04T10:37:35;3.3;;;2.2;;
53674;SDS011;39574;50.534;8.500;2022-08-04T10:42:34;3.2;;;2.3;;
53674;SDS011;39574;50.534;8.500;2022-08-04T10:47:34;3.3;;;2.1;;
53674;SDS011;39574;50.534;8.500;2022-08-04T10:52:35;3.1;;;2.0;;
53674;SDS011;39574;50.534;8.500;2022-08-04T10:57:35;3.6;;;1.9;;
53674;SDS011;39574;50.534;8.500;2022-08-04T11:02:36;3.5;;;1.9;;
53674;SDS011;39574;50.534;8.500;2022-08-04T11:07:35;3.3;;;1.9;;
53674;SDS011;39574;50.534;8.500;2022-08-04T11:12:35;2.9;;;1.8;;
53674;SDS011;39574;50.534;8.500;2022-08-04T11:17:35;2.8;;;1.8;;
53674;SDS011;39574;50.534;8.500;2022-08-04T11:22:36;3.0;;;1.8;;
53674;SDS011;39574;50.534;8.500;2022-08-04T11:27:38;3.6;;;1.8;;
53674;SDS011;39574;50.534;8.500;2022-08-04T11:32:49;3.8;;;1.8;;
53674;SDS011;39574;50.534;8.500;2022-08-04T11:37:40;3.0;;;1.7;;
53674;SDS011;39574;50.534;8.500;2022-08-04T11:42:38;2.6;;;1.6;;
53674;SDS011;39574;50.534;8.500;2022-08-04T11:47:39;2.6;;;1.6;;
53674;SDS011;39574;50.534;8.500;2022-08-04T11:52:39;2.7;;;1.7;;
53674;SDS011;39574;50.534;8.500;2022-08-04T11:57:38;2.5;;;1.6;;
53674;SDS011;39574;50.534;8.500;2022-08-04T12:02:49;2.8;;;1.4;;
53674;SDS011;39574;50.534;8.500;2022-08-04T12:07:43;2.7;;;1.4;;
53674;SDS011;39574;50.534;8.500;2022-08-04T12:12:41;2.7;;;1.4;;
53674;SDS011;39574;50.534;8.500;2022-08-04T12:17:42;2.7;;;1.4;;
53674;SDS011;39574;50.534;8.500;2022-08-04T12:22:42;2.5;;;1.4;;
53674;SDS011;39574;50.534;8.500;2022-08-04T12:27:43;2.4;;;1.4;;
53674;SDS011;39574;50.534;8.500;2022-08-04T12:32:42;2.6;;;1.4;;
53674;SDS011;39574;50.534;8.500;2022-08-04T12:37:44;2.4;;;1.4;;
53674;SDS011;39574;50.534;8.500;2022-08-04T12:42:44;2.3;;;1.4;;
53674;SDS011;39574;50.534;8.500;2022-08-04T12:47:42;2.3;;;1.3;;
53674;SDS011;39574;50.534;8.500;2022-08-04T12:52:43;2.7;;;1.5;;
53674;SDS011;39574;50.534;8.500;2022-08-04T12:57:43;2.8;;;1.4;;
53674;SDS011;39574;50.534;8.500;2022-08-04T13:02:43;3.4;;;1.5;;
53674;SDS011;39574;50.534;8.500;2022-08-04T13:07:45;3.6;;;1.5;;
53674;SDS011;39574;50.534;8.500;2022-08-04T13:12:50;3.2;;;1.5;;
53674;SDS011;39574;50.534;8.500;2022-08-04T13:17:48;2.6;;;1.4;;
53674;SDS011;39574;50.534;8.500;2022-08-04T13:22:45;2.4;;;1.5;;
53674;SDS011;39574;50.534;8.500;2022-08-04T13:27:45;2.5;;;1.5;;
53674;SDS011;39574;50.534;8.500;2022-08-04T13:32:46;2.7;;;1.6;;
53674;SDS011;39574;50.534;8.500;2022-08-04T13:37:46;3.3;;;1.6;;
53674;SDS011;39574;50.534;8.500;2022-08-04T13:42:46;3.2;;;1.7;;
53674;SDS011;39574;50.534;8.500;2022-08-04T13:47:47;3.2;;;1.6;;
53674;SDS011;39574;50.534;8.500;2022-08-04T13:52:50;3.0;;;1.5;;
53674;SDS011;39574;50.534;8.500;2022-08-04T13:57:49;2.5;;;1.4;;
53674;SDS011;39574;50.534;8.500;2022-08-04T14:02:49;2.9;;;1.5;;
53674;SDS011;39574;50.534;8.500;2022-08-04T14:07:49;4.1;;;1.5;;
53674;SDS011;39574;50.534;8.500;2022-08-04T14:12:50;4.0;;;1.5;;
53674;SDS011;39574;50.534;8.500;2022-08-04T14:17:50;3.8;;;1.5;;
53674;SDS011;39574;50.534;8.500;2022-08-04T14:22:50;3.7;;;1.6;;
53674;SDS011;39574;50.534;8.500;2022-08-04T14:27:51;2.8;;;1.6;;
53674;SDS011;39574;50.534;8.500;2022-08-04T14:32:53;2.7;;;1.6;;
53674;SDS011;39574;50.534;8.500;2022-08-04T14:37:52;2.4;;;1.6;;
53674;SDS011;39574;50.534;8.500;2022-08-04T14:42:52;2.2;;;1.6;;
53674;SDS011;39574;50.534;8.500;2022-08-04T14:47:53;2.6;;;1.6;;
53674;SDS011;39574;50.534;8.500;2022-08-04T14:52:56;2.6;;;1.6;;
53674;SDS011;39574;50.534;8.500;2022-08-04T14:57:54;2.6;;;1.6;;
53674;SDS011;39574;50.534;8.500;2022-08-04T15:02:55;2.9;;;1.6;;
53674;SDS011;39574;50.534;8.500;2022-08-04T15:07:55;2.7;;;1.5;;
53674;SDS011;39574;50.534;8.500;2022-08-04T15:12:55;2.8;;;1.5;;
53674;SDS011;39574;50.534;8.500;2022-08-04T15:17:55;2.9;;;1.6;;
53674;SDS011;39574;50.534;8.500;2022-08-04T15:22:56;2.8;;;1.6;;
53674;SDS011;39574;50.534;8.500;2022-08-04T15:27:56;2.9;;;1.6;;
53674;SDS011;39574;50.534;8.500;2022-08-04T15:32:59;2.9;;;1.5;;
53674;SDS011;39574;50.534;8.500;2022-08-04T15:37:59;2.8;;;1.5;;
53674;SDS011;39574;50.534;8.500;2022-08-04T15:43:02;2.5;;;1.5;;
53674;SDS011;39574;50.534;8.500;2022-08-04T15:48:21;2.4;;;1.5;;
53674;SDS011;39574;50.534;8.500;2022-08-04T15:52:59;2.3;;;1.5;;
53674;SDS011;39574;50.534;8.500;2022-08-04T15:57:59;2.2;;;1.5;;
53674;SDS011;39574;50.534;8.500;2022-08-04T16:02:59;2.3;;;1.4;;
53674;SDS011;39574;50.534;8.500;2022-08-04T16:08:00;2.7;;;1.5;;
53674;SDS011;39574;50.534;8.500;2022-08-04T16:13:02;3.0;;;1.6;;
53674;SDS011;39574;50.534;8.500;2022-08-04T16:18:00;3.2;;;1.6;;
53674;SDS011;39574;50.534;8.500;2022-08-04T16:23:02;3.8;;;1.6;;
53674;SDS011;39574;50.534;8.500;2022-08-04T16:28:00;4.1;;;1.7;;
53674;SDS011;39574;50.534;8.500;2022-08-04T16:33:01;4.0;;;1.6;;
53674;SDS011;39574;50.534;8.500;2022-08-04T16:38:16;4.9;;;1.5;;
53674;SDS011;39574;50.534;8.500;2022-08-04T16:43:02;4.3;;;1.4;;
53674;SDS011;39574;50.534;8.500;2022-08-04T16:48:03;3.9;;;1.5;;
53674;SDS011;39574;50.534;8.500;2022-08-04T16:53:02;3.3;;;1.4;;
53674;SDS011;39574;50.534;8.500;2022-08-04T16:58:02;3.0;;;1.4;;
53674;SDS011;39574;50.534;8.500;2022-08-04T17:03:03;2.4;;;1.3;;
53674;SDS011;39574;50.534;8.500;2022-08-04T17:08:03;2.6;;;1.4;;
53674;SDS011;39574;50.534;8.500;2022-08-04T17:13:19;2.7;;;1.6;;
53674;SDS011;39574;50.534;8.500;2022-08-04T17:18:16;2.6;;;1.6;;
53674;SDS011;39574;50.534;8.500;2022-08-04T17:23:20;3.1;;;1.5;;
53674;SDS011;39574;50.534;8.500;2022-08-04T17:28:04;3.4;;;1.6;;
53674;SDS011;39574;50.534;8.500;2022-08-04T17:33:05;3.7;;;1.6;;
53674;SDS011;39574;50.534;8.500;2022-08-04T17:38:04;3.7;;;1.5;;
53674;SDS011;39574;50.534;8.500;2022-08-04T17:43:05;3.9;;;1.5;;
53674;SDS011;39574;50.534;8.500;2022-08-04T17:48:05;4.1;;;1.4;;
53674;SDS011;39574;50.534;8.500;2022-08-04T17:53:05;4.0;;;1.4;;
53674;SDS011;39574;50.534;8.500;2022-08-04T17:58:13;4.3;;;1.3;;
53674;SDS011;39574;50.534;8.500;2022-08-04T18:03:06;3.7;;;1.4;;
53674;SDS011;39574;50.534;8.500;2022-08-04T18:08:06;2.9;;;1.3;;
53674;SDS011;39574;50.534;8.500;2022-08-04T18:13:06;2.8;;;1.4;;
53674;SDS011;39574;50.534;8.500;2022-08-04T18:18:14;3.4;;;1.6;;
53674;SDS011;39574;50.534;8.500;2022-08-04T18:23:07;3.2;;;1.5;;
53674;SDS011;39574;50.534;8.500;2022-08-04T18:28:06;3.3;;;1.5;;
53674;SDS011;39574;50.534;8.500;2022-08-04T18:33:06;3.0;;;1.7;;
53674;SDS011;39574;50.534;8.500;2022-08-04T18:38:06;2.7;;;1.5;;
53674;SDS011;39574;50.534;8.500;2022-08-04T18:43:07;2.8;;;1.6;;
53674;SDS011;39574;50.534;8.500;2022-08-04T18:48:07;3.3;;;1.8;;
53674;SDS011;39574;50.534;8.500;2022-08-04T18:53:07;3.4;;;1.9;;
53674;SDS011;39574;50.534;8.500;2022-08-04T18:58:07;3.9;;;2.0;;
53674;SDS011;39574;50.534;8.500;2022-08-04T19:03:07;4.3;;;2.0;;
53674;SDS011;39574;50.534;8.500;2022-08-04T19:08:07;4.5;;;2.0;;
53674;SDS011;39574;50.534;8.500;2022-08-04T19:13:07;5.3;;;2.1;;
53674;SDS011;39574;50.534;8.500;2022-08-04T19:18:07;5.5;;;2.4;;
53674;SDS011;39574;50.534;8.500;2022-08-04T19:23:07;5.2;;;2.3;;
53674;SDS011;39574;50.534;8.500;2022-08-04T19:28:07;5.8;;;2.5;;
53674;SDS011;39574;50.534;8.500;2022-08-04T19:33:07;5.3;;;2.4;;
53674;SDS011;39574;50.534;8.500;2022-08-04T19:38:08;4.3;;;2.2;;
53674;SDS011;39574;50.534;8.500;2022-08-04T19:43:07;4.3;;;2.2;;
53674;SDS011;39574;50.534;8.500;2022-08-04T19:48:08;4.5;;;2.1;;
53674;SDS011;39574;50.534;8.500;2022-08-04T19:53:07;4.7;;;2.0;;
53674;SDS011;39574;50.534;8.500;2022-08-04T19:58:07;4.8;;;2.1;;
53674;SDS011;39574;50.534;8.500;2022-08-04T20:03:08;5.0;;;2.3;;
53674;SDS011;39574;50.534;8.500;2022-08-04T20:08:07;4.6;;;2.3;;
53674;SDS011;39574;50.534;8.500;2022-08-04T20:13:07;4.8;;;2.3;;
53674;SDS011;39574;50.534;8.500;2022-08-04T20:18:08;4.9;;;2.3;;
53674;SDS011;39574;50.534;8.500;2022-08-04T20:23:07;4.7;;;2.2;;
53674;SDS011;39574;50.534;8.500;2022-08-04T20:28:07;4.8;;;2.2;;
53674;SDS011;39574;50.534;8.500;2022-08-04T20:33:07;4.7;;;2.3;;
53674;SDS011;39574;50.534;8.500;2022-08-04T20:38:07;4.5;;;2.3;;
53674;SDS011;39574;50.534;8.500;2022-08-04T20:43:07;5.0;;;2.4;;
53674;SDS011;39574;50.534;8.500;2022-08-04T20:48:07;4.9;;;2.4;;
53674;SDS011;39574;50.534;8.500;2022-08-04T20:53:07;5.4;;;2.3;;
53674;SDS011;39574;50.534;8.500;2022-08-04T20:58:07;5.5;;;2.3;;
53674;SDS011;39574;50.534;8.500;2022-08-04T21:03:07;5.8;;;2.3;;
53674;SDS011;39574;50.534;8.500;2022-08-04T21:08:07;5.9;;;2.4;;
53674;SDS011;39574;50.534;8.500;2022-08-04T21:13:07;5.2;;;2.4;;
53674;SDS011;39574;50.534;8.500;2022-08-04T21:18:07;5.8;;;2.5;;
53674;SDS011;39574;50.534;8.500;2022-08-04T21:23:07;6.1;;;2.5;;
53674;SDS011;39574;50.534;8.500;2022-08-04T21:28:07;5.9;;;2.3;;
53674;SDS011;39574;50.534;8.500;2022-08-04T21:33:08;4.9;;;2.2;;
53674;SDS011;39574;50.534;8.500;2022-08-04T21:38:08;5.2;;;2.3;;
53674;SDS011;39574;50.534;8.500;2022-08-04T21:43:08;5.3;;;2.3;;
53674;SDS011;39574;50.534;8.500;2022-08-04T21:48:07;4.8;;;2.3;;
53674;SDS011;39574;50.534;8.500;2022-08-04T21:53:07;4.4;;;2.2;;
53674;SDS011;39574;50.534;8.500;2022-08-04T21:58:07;3.8;;;2.2;;
53674;SDS011;39574;50.534;8.500;2022-08-04T22:03:07;4.2;;;2.2;;
53674;SDS011;39574;50.534;8.500;2022-08-04T22:08:07;4.4;;;2.1;;
53674;SDS011;39574;50.534;8.500;2022-08-04T22:13:07;5.3;;;2.3;;
53674;SDS011;39574;50.534;8.500;2022-08-04T22:18:07;5.4;;;2.3;;
53674;SDS011;39574;50.534;8.500;2022-08-04T22:23:07;5.6;;;2.4;;
53674;SDS011;39574;50.534;8.500;2022-08-04T22:28:06;5.0;;;2.3;;
53674;SDS011;39574;50.534;8.500;2022-08-04T22:33:06;5.8;;;2.5;;
53674;SDS011;39574;50.534;8.500;2022-08-04T22:38:06;5.8;;;2.6;;
53674;SDS011;39574;50.534;8.500;2022-08-04T22:43:06;5.7;;;2.5;;
53674;SDS011;39574;50.534;8.500;2022-08-04T22:48:06;5.5;;;2.5;;
53674;SDS011;39574;50.534;8.500;2022-08-04T22:53:06;4.8;;;2.4;;
53674;SDS011;39574;50.534;8.500;2022-08-04T22:58:06;4.6;;;2.5;;
53674;SDS011;39574;50.534;8.500;2022-08-04T23:03:05;4.2;;;2.5;;
53674;SDS011;39574;50.534;8.500;2022-08-04T23:08:06;4.1;;;2.6;;
53674;SDS011;39574;50.534;8.500;2022-08-04T23:13:05;4.6;;;2.6;;
53674;SDS011;39574;50.534;8.500;2022-08-04T23:18:05;4.2;;;2.5;;
53674;SDS011;39574;50.534;8.500;2022-08-04T23:23:05;4.9;;;2.5;;
53674;SDS011;39574;50.534;8.500;2022-08-04T23:28:04;5.6;;;2.6;;
53674;SDS011;39574;50.534;8.500;2022-08-04T23:33:04;5.5;;;2.8;;
53674;SDS011;39574;50.534;8.500;2022-08-04T23:38:04;5.9;;;2.9;;
53674;SDS011;39574;50.534;8.500;2022-08-04T23:43:04;5.8;;;3.0;;
53674;SDS011;39574;50.534;8.500;2022-08-04T23:48:04;6.1;;;3.0;;
53674;SDS011;39574;50.534;8.500;2022-08-04T23:53:04;5.8;;;2.9;;
53674;SDS011;39574;50.534;8.500;2022-08-04T23:58:03;6.3;;;2.8;;
